This is the latest recevied weather packets stored in our database for station/object K5OBH. If no packets are shown the sender has not sent any weather packets the latest 10 day(s).
| Time | Temp. | Humidity | Pressure | Rain* | Wind** | Luminosity | Snow |
|---|---|---|---|---|---|---|---|
| 1778093186 | 17.22° C | 55% | 1016.2 hPa | 0 mm | - | 360 W/m² | - |
| 1778092883 | 16.67° C | 55% | 1016.2 hPa | 0 mm | - | 878 W/m² | - |
| 1778092580 | 16.11° C | 57% | 1015.9 hPa | 0 mm | - | 854 W/m² | - |
| 1778092276 | 16.67° C | 55% | 1016.4 hPa | 0 mm | - | 328 W/m² | - |
| 1778091974 | 16.11° C | 57% | 1016.2 hPa | 0 mm | - | 876 W/m² | - |
| 1778091671 | 15.56° C | 57% | 1016.2 hPa | 0 mm | - | 794 W/m² | - |
| 1778091369 | 16.67° C | 56% | 1016.3 hPa | 0 mm | - | 877 W/m² | - |
| 1778091065 | 15.56° C | 58% | 1016.7 hPa | 0 mm | - | 864 W/m² | - |
| 1778090762 | 16.11° C | 57% | 1016.6 hPa | 0 mm | - | 855 W/m² | - |
| 1778090458 | 15.56° C | 57% | 1016.2 hPa | 0 mm | - | 802 W/m² | - |
| 1778090155 | 15.56° C | 56% | 1016.8 hPa | 0 mm | - | 784 W/m² | - |
| 1778089851 | 15.56° C | 57% | 1017 hPa | 0 mm | - | 813 W/m² | - |
| 1778089550 | 15° C | 57% | 1017.1 hPa | 0 mm | - | 793 W/m² | - |
| 1778089245 | 16.67° C | 56% | 1016.9 hPa | 0 mm | - | 816 W/m² | - |
| 1778088944 | 15° C | 59% | 1016.9 hPa | 0 mm | - | 234 W/m² | - |
| 1778088640 | 15° C | 62% | 1017.3 hPa | 0 mm | - | 836 W/m² | - |
| 1778088338 | 14.44° C | 62% | 1017.1 hPa | 0 mm | - | 784 W/m² | - |
| 1778088034 | 14.44° C | 61% | 1017.3 hPa | 0 mm | - | 794 W/m² | - |
| 1778087731 | 15° C | 59% | 1017.3 hPa | 0 mm | - | 623 W/m² | - |
| 1778087428 | 14.44° C | 60% | 1017.2 hPa | 0 mm | - | 678 W/m² | - |
| 1778087126 | 13.89° C | 62% | 1017 hPa | 0 mm | - | 781 W/m² | - |
| 1778086819 | 15° C | 61% | 1017.1 hPa | 0 mm | - | 712 W/m² | - |
| 1778086516 | 13.89° C | 62% | 1017.1 hPa | 0 mm | - | 748 W/m² | - |
| 1778086212 | 13.89° C | 63% | 1017 hPa | 0 mm | - | 697 W/m² | - |
| 1778085908 | 13.89° C | 64% | 1017.2 hPa | 0 mm | - | 241 W/m² | - |
* Rain latest hour (hover to see other rain measurements)
** Current wind speed in m/s (hover to see current wind gust speed)